createdAt,value
2022-10-16T00:01:46.891Z,14.50
2022-10-16T00:04:15.758Z,12.75
2022-10-16T00:06:44.463Z,11.57
2022-10-16T00:09:13.685Z,15.43
2022-10-16T00:11:43.246Z,23.35
2022-10-16T00:14:15.378Z,13.27
2022-10-16T00:16:44.049Z,10.88
2022-10-16T00:19:14.334Z,14.07
2022-10-16T00:21:43.379Z,13.23
2022-10-16T00:24:12.629Z,17.20
2022-10-16T00:26:41.973Z,15.57
2022-10-16T00:29:12.289Z,14.20
2022-10-16T00:31:40.998Z,16.08
2022-10-16T00:34:09.756Z,15.45
2022-10-16T00:36:38.756Z,16.73
2022-10-16T00:39:08.791Z,18.02
2022-10-16T00:41:37.536Z,20.45
2022-10-16T00:44:48.086Z,19.40
2022-10-16T00:47:21.729Z,19.42
2022-10-16T00:49:51.861Z,17.40
2022-10-16T00:52:20.704Z,27.75
2022-10-16T00:54:49.552Z,17.60
2022-10-16T00:57:18.385Z,20.77
2022-10-16T00:59:49.347Z,21.83
2022-10-16T01:02:18.812Z,18.27
2022-10-16T01:04:48.984Z,21.05
2022-10-16T01:07:26.953Z,18.92
2022-10-16T01:10:03.299Z,20.58
2022-10-16T01:12:39.138Z,24.50
2022-10-16T01:15:15.581Z,19.98
2022-10-16T01:17:48.710Z,21.45
2022-10-16T01:20:24.836Z,25.20
2022-10-16T01:23:08.853Z,17.15
2022-10-16T01:26:09.749Z,20.02
2022-10-16T01:28:43.448Z,24.40
2022-10-16T01:31:13.891Z,19.38
2022-10-16T01:36:15.761Z,21.27
2022-10-16T01:38:47.245Z,21.08
2022-10-16T01:41:20.912Z,18.67
2022-10-16T01:43:53.376Z,22.25
2022-10-16T01:46:23.484Z,22.38
2022-10-16T01:48:53.930Z,22.98
2022-10-16T01:51:23.149Z,28.33
2022-10-16T01:53:56.988Z,24.10
2022-10-16T01:56:26.888Z,22.15
2022-10-16T01:58:59.085Z,25.73
2022-10-16T02:01:29.561Z,26.95
2022-10-16T02:06:27.283Z,32.85
2022-10-16T02:08:56.335Z,21.08
2022-10-16T02:11:25.074Z,24.50
2022-10-16T02:13:58.136Z,22.80
2022-10-16T02:16:35.834Z,22.00
2022-10-16T02:19:05.085Z,25.75
2022-10-16T02:21:39.960Z,23.40
2022-10-16T02:24:11.570Z,27.77
2022-10-16T02:26:46.255Z,25.40
2022-10-16T02:29:19.272Z,27.90
2022-10-16T02:31:50.423Z,26.27
2022-10-16T02:34:20.838Z,20.75
2022-10-16T02:39:18.653Z,28.30
2022-10-16T02:41:47.438Z,27.80
2022-10-16T02:44:17.649Z,22.08
2022-10-16T02:46:46.145Z,25.67
2022-10-16T02:49:14.924Z,26.63
2022-10-16T02:51:43.696Z,22.17
2022-10-16T02:54:12.463Z,27.15
2022-10-16T02:56:41.545Z,31.83
2022-10-16T02:59:11.236Z,23.13
2022-10-16T03:01:41.000Z,26.33
2022-10-16T03:04:09.663Z,29.98
2022-10-16T03:06:39.315Z,25.90
2022-10-16T03:09:08.082Z,27.75
2022-10-16T03:11:36.772Z,23.00
2022-10-16T03:14:05.508Z,26.50
2022-10-16T03:16:33.916Z,30.38
2022-10-16T03:19:04.074Z,29.55
2022-10-16T03:21:33.236Z,27.13
2022-10-16T03:24:01.955Z,26.17
2022-10-16T03:26:30.796Z,28.02
2022-10-16T03:28:59.593Z,26.50
2022-10-16T03:31:28.066Z,26.73
2022-10-16T03:33:56.892Z,24.02
2022-10-16T03:36:27.300Z,23.80
2022-10-16T03:41:24.592Z,23.00
2022-10-16T03:43:52.948Z,22.65
2022-10-16T03:46:21.663Z,25.15
2022-10-16T03:48:50.417Z,22.45
2022-10-16T03:51:19.199Z,26.27
2022-10-16T03:53:49.317Z,27.23
2022-10-16T03:56:18.412Z,27.10
2022-10-16T03:58:46.797Z,21.27
2022-10-16T04:01:15.633Z,29.52
2022-10-16T04:03:44.671Z,25.60
2022-10-16T04:06:13.460Z,24.48
2022-10-16T04:08:44.854Z,23.08
2022-10-16T04:11:15.270Z,27.48
2022-10-16T04:13:43.801Z,29.33
2022-10-16T04:16:12.574Z,26.38
2022-10-16T04:18:41.454Z,26.08
2022-10-16T04:21:10.339Z,23.60
2022-10-16T04:23:41.598Z,24.52
2022-10-16T04:26:11.447Z,29.58
2022-10-16T04:28:42.446Z,22.48
2022-10-16T04:31:11.360Z,22.48
2022-10-16T04:33:40.010Z,22.48
2022-10-16T04:36:08.836Z,23.63
2022-10-16T04:38:38.553Z,21.90
2022-10-16T04:41:07.462Z,26.67
2022-10-16T04:43:35.934Z,24.48
2022-10-16T04:46:06.804Z,22.98
2022-10-16T04:48:35.509Z,25.98
2022-10-16T04:51:04.329Z,28.25
2022-10-16T04:53:32.997Z,22.75
2022-10-16T04:56:01.719Z,24.67
2022-10-16T04:58:30.357Z,26.45
2022-10-16T05:00:59.109Z,27.30
2022-10-16T05:06:02.907Z,25.80
2022-10-16T05:08:31.785Z,28.15
2022-10-16T05:11:01.277Z,25.27
2022-10-16T05:13:29.810Z,25.50
2022-10-16T05:15:58.587Z,22.33
2022-10-16T05:18:28.859Z,26.17
2022-10-16T05:20:57.620Z,25.85
2022-10-16T05:23:26.368Z,27.55
2022-10-16T05:25:56.690Z,25.95
2022-10-16T05:28:25.478Z,30.67
2022-10-16T05:30:54.398Z,26.77
2022-10-16T05:33:23.756Z,29.27
2022-10-16T05:35:54.318Z,22.73
2022-10-16T05:38:23.245Z,31.77
2022-10-16T05:40:54.720Z,28.98
2022-10-16T05:43:23.642Z,25.58
2022-10-16T05:45:58.954Z,28.13
2022-10-16T05:48:28.322Z,26.33
2022-10-16T05:51:01.903Z,28.90
2022-10-16T05:53:30.790Z,28.00
2022-10-16T05:56:00.824Z,24.73
2022-10-16T05:58:31.900Z,28.40
2022-10-16T06:01:04.437Z,24.55
2022-10-16T06:03:33.267Z,27.65
2022-10-16T06:06:12.252Z,25.27
2022-10-16T06:08:41.577Z,30.77
2022-10-16T06:11:12.028Z,25.63
2022-10-16T06:13:42.863Z,29.63
2022-10-16T06:16:12.350Z,21.63
2022-10-16T06:18:41.460Z,23.20
2022-10-16T06:21:13.443Z,22.55
2022-10-16T06:23:42.274Z,21.85
2022-10-16T06:26:12.326Z,19.80
2022-10-16T06:28:41.174Z,22.55
2022-10-16T06:31:11.399Z,19.40
2022-10-16T06:33:40.388Z,24.05
2022-10-16T06:36:12.025Z,20.88
2022-10-16T06:38:41.094Z,20.10
2022-10-16T06:41:11.484Z,18.15
2022-10-16T06:43:39.844Z,21.45
2022-10-16T06:46:10.143Z,18.90
2022-10-16T06:51:09.338Z,24.00
2022-10-16T06:54:01.215Z,18.50
2022-10-16T06:56:31.127Z,19.70
2022-10-16T07:01:28.666Z,20.80
2022-10-16T07:03:57.893Z,17.70
2022-10-16T07:06:27.700Z,22.50
2022-10-16T07:08:57.909Z,23.50
2022-10-16T07:11:26.826Z,19.25
2022-10-16T07:13:56.609Z,25.88
2022-10-16T07:16:26.948Z,19.88
2022-10-16T07:18:59.817Z,20.15
2022-10-16T07:21:30.775Z,22.63
2022-10-16T07:26:32.693Z,17.67
2022-10-16T07:29:01.963Z,20.90
2022-10-16T07:31:30.990Z,17.05
2022-10-16T07:34:00.802Z,20.65
2022-10-16T07:36:29.935Z,21.57
2022-10-16T07:39:00.170Z,18.67
2022-10-16T07:41:31.255Z,20.30
2022-10-16T07:44:01.684Z,17.25
2022-10-16T07:46:31.080Z,13.85
2022-10-16T07:48:59.922Z,18.50
2022-10-16T07:51:28.869Z,15.70
2022-10-16T07:53:57.617Z,18.42
2022-10-16T07:56:26.545Z,12.35
2022-10-16T07:58:57.616Z,15.10
2022-10-16T08:01:26.414Z,19.52
2022-10-16T08:03:55.612Z,14.15
2022-10-16T08:06:28.996Z,11.30
2022-10-16T08:08:58.319Z,18.23
2022-10-16T08:11:27.303Z,14.70
2022-10-16T08:13:57.263Z,13.02
2022-10-16T08:16:27.173Z,16.10
2022-10-16T08:18:56.060Z,15.02
2022-10-16T08:21:25.301Z,14.77
2022-10-16T08:23:57.253Z,13.82
2022-10-16T08:26:28.598Z,17.80
2022-10-16T08:28:58.599Z,14.07
2022-10-16T08:31:28.404Z,16.63
2022-10-16T08:33:58.404Z,12.68
2022-10-16T08:36:29.065Z,16.60
2022-10-16T08:38:57.956Z,15.45
2022-10-16T08:41:56.488Z,14.93
2022-10-16T08:44:37.276Z,13.57
2022-10-16T08:47:16.384Z,18.05
2022-10-16T08:50:00.425Z,12.07
2022-10-16T08:52:32.352Z,13.55
2022-10-16T08:55:01.366Z,15.45
2022-10-16T08:57:30.946Z,14.52
2022-10-16T09:00:04.258Z,12.52
2022-10-16T09:02:35.057Z,13.80
2022-10-16T09:05:21.191Z,13.27
2022-10-16T09:07:55.848Z,12.77
2022-10-16T09:10:33.223Z,11.05
2022-10-16T09:13:06.645Z,10.35
2022-10-16T09:15:40.072Z,15.10
2022-10-16T09:18:14.088Z,12.38
2022-10-16T09:20:50.731Z,16.20
2022-10-16T09:23:21.941Z,19.10
2022-10-16T09:25:51.628Z,12.25
2022-10-16T09:28:21.045Z,12.25
2022-10-16T09:30:51.719Z,11.13
2022-10-16T09:33:24.731Z,11.32
2022-10-16T09:35:55.206Z,12.40
2022-10-16T09:38:29.076Z,14.85
2022-10-16T09:41:03.054Z,13.70
2022-10-16T09:43:36.828Z,14.20
2022-10-16T09:46:11.562Z,13.88
2022-10-16T09:48:42.452Z,14.05
2022-10-16T09:51:26.055Z,16.40
2022-10-16T09:53:58.818Z,13.00
2022-10-16T09:56:29.572Z,12.48
2022-10-16T09:58:59.318Z,11.02
2022-10-16T10:01:38.959Z,11.52
2022-10-16T10:04:08.311Z,13.10
2022-10-16T10:06:39.131Z,9.80
2022-10-16T10:09:16.784Z,15.27
2022-10-16T10:11:49.635Z,14.30
2022-10-16T10:14:27.516Z,12.93
2022-10-16T10:17:12.676Z,12.05
2022-10-16T10:19:43.665Z,10.85
2022-10-16T10:22:25.756Z,14.55
2022-10-16T10:25:18.206Z,14.63
2022-10-16T10:27:58.610Z,11.60
2022-10-16T10:30:32.115Z,10.88
2022-10-16T10:33:14.319Z,13.23
2022-10-16T10:35:47.822Z,15.80
2022-10-16T10:38:27.327Z,11.90
2022-10-16T10:41:01.353Z,12.07
2022-10-16T10:43:42.415Z,13.57
2022-10-16T10:46:13.954Z,12.32
2022-10-16T10:48:57.289Z,12.23
2022-10-16T10:51:31.506Z,7.85
2022-10-16T10:54:09.597Z,17.67
2022-10-16T10:56:45.836Z,17.13
2022-10-16T10:59:27.495Z,14.20
2022-10-16T11:01:58.941Z,11.88
2022-10-16T11:04:53.152Z,14.07
2022-10-16T11:07:26.408Z,14.80
2022-10-16T11:09:58.586Z,14.50
2022-10-16T11:12:30.320Z,10.98
2022-10-16T11:15:04.249Z,16.10
2022-10-16T11:17:36.292Z,19.38
2022-10-16T11:20:15.697Z,16.63
2022-10-16T11:22:48.245Z,11.75
2022-10-16T11:25:21.102Z,15.48
2022-10-16T11:27:53.467Z,13.65
2022-10-16T11:30:24.246Z,13.73
2022-10-16T11:33:07.116Z,10.95
2022-10-16T11:35:43.121Z,15.48
2022-10-16T11:38:16.838Z,10.07
2022-10-16T11:40:46.922Z,10.68
2022-10-16T11:45:48.619Z,12.05
2022-10-16T11:48:24.222Z,11.00
2022-10-16T11:50:56.217Z,12.93
2022-10-16T11:53:42.434Z,9.93
2022-10-16T11:56:14.863Z,15.35
2022-10-16T11:58:50.822Z,12.93
2022-10-16T12:04:02.682Z,14.82
2022-10-16T12:06:38.539Z,12.38
2022-10-16T12:09:07.901Z,10.85
2022-10-16T12:11:39.339Z,13.38
2022-10-16T12:14:23.798Z,14.88
2022-10-16T12:16:57.348Z,10.15
2022-10-16T12:19:29.183Z,15.00
2022-10-16T12:22:01.443Z,16.00
2022-10-16T12:24:35.866Z,10.07
2022-10-16T12:27:05.466Z,9.30
2022-10-16T12:29:37.544Z,10.63
2022-10-16T12:32:10.855Z,10.57
2022-10-16T12:34:41.872Z,12.35
2022-10-16T12:37:17.630Z,11.10
2022-10-16T12:39:46.481Z,12.23
2022-10-16T12:42:36.027Z,13.23
2022-10-16T12:45:24.988Z,14.07
2022-10-16T12:47:55.650Z,12.85
2022-10-16T12:50:27.924Z,13.52
2022-10-16T12:52:57.695Z,8.52
2022-10-16T12:55:26.750Z,9.95
2022-10-16T12:58:11.969Z,16.02
2022-10-16T13:00:46.893Z,12.70
2022-10-16T13:03:56.867Z,14.60
2022-10-16T13:06:35.625Z,12.23
2022-10-16T13:09:22.354Z,12.68
2022-10-16T13:12:15.527Z,10.90
2022-10-16T13:15:04.657Z,13.50
2022-10-16T13:17:39.631Z,12.57
2022-10-16T13:20:16.683Z,16.67
2022-10-16T13:22:55.280Z,12.93
2022-10-16T13:25:37.049Z,10.45
2022-10-16T13:28:08.017Z,10.05
2022-10-16T13:30:39.570Z,11.45
2022-10-16T13:33:17.696Z,10.18
2022-10-16T13:35:52.030Z,15.13
2022-10-16T13:38:22.208Z,10.68
2022-10-16T13:40:54.458Z,12.13
2022-10-16T13:43:26.144Z,14.48
2022-10-16T13:45:56.447Z,16.40
2022-10-16T13:51:05.047Z,8.57
2022-10-16T13:53:35.191Z,11.38
2022-10-16T13:56:07.297Z,18.10
2022-10-16T13:58:35.813Z,16.95
2022-10-16T14:01:07.056Z,13.02
2022-10-16T14:03:37.803Z,14.48
2022-10-16T14:06:10.978Z,11.23
2022-10-16T14:08:45.199Z,11.77
2022-10-16T14:11:15.491Z,13.45
2022-10-16T14:13:47.095Z,14.73
2022-10-16T14:16:20.271Z,16.80
2022-10-16T14:21:23.091Z,13.45
2022-10-16T14:23:51.839Z,12.82
2022-10-16T14:26:23.572Z,11.18
2022-10-16T14:29:05.184Z,16.52
2022-10-16T14:31:37.419Z,12.93
2022-10-16T14:34:06.798Z,14.18
2022-10-16T14:36:36.120Z,13.38
2022-10-16T14:39:07.083Z,11.75
2022-10-16T14:41:45.511Z,12.85
2022-10-16T14:44:14.659Z,14.38
2022-10-16T14:46:44.231Z,14.80
2022-10-16T14:49:19.295Z,16.67
2022-10-16T14:51:48.526Z,13.52
2022-10-16T14:54:19.431Z,12.18
2022-10-16T14:56:51.498Z,13.90
2022-10-16T14:59:30.440Z,14.75
2022-10-16T15:01:59.034Z,12.45
2022-10-16T15:04:27.809Z,12.90
2022-10-16T15:06:56.580Z,13.63
2022-10-16T15:09:25.489Z,13.18
2022-10-16T15:11:55.714Z,12.85
2022-10-16T15:16:53.472Z,18.33
2022-10-16T15:19:22.366Z,11.73
2022-10-16T15:21:51.973Z,11.73
2022-10-16T15:24:21.612Z,11.65
2022-10-16T15:26:53.306Z,13.88
2022-10-16T15:29:23.571Z,13.85
2022-10-16T15:31:54.593Z,16.80
2022-10-16T15:34:23.355Z,14.90
2022-10-16T15:36:54.534Z,17.73
2022-10-16T15:39:23.701Z,14.60
2022-10-16T15:41:54.418Z,13.23
2022-10-16T15:44:27.318Z,14.60
2022-10-16T15:46:57.081Z,14.20
2022-10-16T15:49:25.937Z,15.18
2022-10-16T15:51:56.051Z,14.32
2022-10-16T15:54:24.938Z,18.95
2022-10-16T15:56:53.736Z,14.73
2022-10-16T15:59:24.840Z,13.23
2022-10-16T16:01:53.474Z,18.35
2022-10-16T16:04:42.732Z,22.05
2022-10-16T16:07:12.108Z,16.38
2022-10-16T16:09:40.992Z,17.15
2022-10-16T16:12:09.736Z,13.50
2022-10-16T16:14:40.001Z,14.85
2022-10-16T16:19:38.576Z,15.65
2022-10-16T16:24:39.830Z,18.75
2022-10-16T16:27:08.950Z,19.50
2022-10-16T16:29:38.247Z,16.10
2022-10-16T16:32:08.623Z,15.02
2022-10-16T16:34:37.101Z,18.80
2022-10-16T16:37:05.829Z,16.05
2022-10-16T16:39:34.852Z,16.85
2022-10-16T16:42:05.160Z,18.83
2022-10-16T16:47:02.524Z,17.20
2022-10-16T16:49:32.704Z,15.43
2022-10-16T16:54:30.346Z,16.42
2022-10-16T16:56:59.206Z,14.80
2022-10-16T16:59:28.162Z,16.90
2022-10-16T17:01:57.259Z,16.40
2022-10-16T17:04:26.170Z,15.67
2022-10-16T17:06:56.607Z,17.10
2022-10-16T17:09:26.071Z,19.42
2022-10-16T17:11:54.962Z,15.60
2022-10-16T17:14:23.882Z,31.20
2022-10-16T17:16:54.282Z,21.55
2022-10-16T17:19:22.960Z,21.58
2022-10-16T17:21:52.519Z,20.50
2022-10-16T17:24:22.705Z,19.03
2022-10-16T17:26:51.466Z,18.35
2022-10-16T17:29:20.474Z,21.83
2022-10-16T17:31:50.607Z,22.20
2022-10-16T17:34:19.715Z,22.98
2022-10-16T17:36:48.558Z,20.67
2022-10-16T17:39:19.337Z,23.88
2022-10-16T17:41:50.315Z,28.73
2022-10-16T17:44:22.590Z,24.27
2022-10-16T17:46:52.759Z,29.73
2022-10-16T17:49:22.201Z,27.15
2022-10-16T17:51:52.575Z,26.17
2022-10-16T17:56:51.521Z,27.02
2022-10-16T17:59:23.310Z,26.15
2022-10-16T18:01:52.283Z,22.55
2022-10-16T18:04:21.292Z,23.40
2022-10-16T18:06:50.353Z,33.45
2022-10-16T18:09:21.050Z,21.10
2022-10-16T18:11:59.623Z,22.60
2022-10-16T18:14:29.411Z,22.92
2022-10-16T18:16:58.401Z,22.08
2022-10-16T18:19:27.501Z,18.80
2022-10-16T18:21:56.775Z,24.00
2022-10-16T18:24:26.145Z,25.10
2022-10-16T18:26:57.706Z,22.45
2022-10-16T18:29:27.997Z,28.00
2022-10-16T18:31:56.515Z,26.75
2022-10-16T18:34:27.030Z,23.08
2022-10-16T18:36:57.668Z,23.08
2022-10-16T18:39:26.669Z,22.85
2022-10-16T18:42:00.093Z,26.00
2022-10-16T18:44:31.354Z,29.98
2022-10-16T18:47:00.205Z,26.00
2022-10-16T18:49:29.715Z,23.50
2022-10-16T18:51:58.774Z,25.42
2022-10-16T18:54:27.556Z,24.98
2022-10-16T18:56:58.437Z,22.63
2022-10-16T18:59:27.666Z,29.98
2022-10-16T19:01:58.069Z,24.48
2022-10-16T19:04:28.539Z,24.27
2022-10-16T19:09:26.441Z,24.80
2022-10-16T19:11:55.141Z,25.65
2022-10-16T19:14:25.861Z,25.90
2022-10-16T19:16:54.286Z,23.77
2022-10-16T19:19:24.010Z,25.10
2022-10-16T19:21:58.161Z,25.60
2022-10-16T19:24:27.485Z,26.73
2022-10-16T19:26:58.038Z,25.98
2022-10-16T19:29:28.336Z,27.27
2022-10-16T19:31:56.868Z,24.83
2022-10-16T19:34:27.194Z,23.13
2022-10-16T19:36:56.012Z,26.10
2022-10-16T19:39:25.389Z,25.55
2022-10-16T19:41:54.120Z,23.08
2022-10-16T19:44:22.846Z,36.10
2022-10-16T19:46:52.608Z,28.83
2022-10-16T19:49:22.197Z,25.13
2022-10-16T19:51:51.985Z,27.80
2022-10-16T19:54:20.854Z,26.13
2022-10-16T19:56:51.091Z,25.50
2022-10-16T19:59:20.439Z,23.65
2022-10-16T20:01:49.233Z,26.10
2022-10-16T20:04:19.404Z,26.02
2022-10-16T20:06:48.136Z,22.30
2022-10-16T20:09:17.014Z,27.50
2022-10-16T20:11:45.696Z,26.75
2022-10-16T20:14:14.559Z,28.42
2022-10-16T20:16:43.273Z,25.70
2022-10-16T20:19:12.455Z,25.38
2022-10-16T20:21:42.673Z,29.45
2022-10-16T20:24:11.581Z,25.85
2022-10-16T20:26:40.545Z,26.25
2022-10-16T20:29:10.685Z,26.35
2022-10-16T20:31:39.860Z,25.10
2022-10-16T20:34:09.898Z,30.92
2022-10-16T20:36:42.874Z,22.25
2022-10-16T20:39:14.899Z,24.55
2022-10-16T20:41:43.696Z,26.75
2022-10-16T20:44:12.535Z,25.85
2022-10-16T20:46:41.784Z,30.00
2022-10-16T20:49:11.621Z,21.65
2022-10-16T20:51:56.622Z,24.52
2022-10-16T20:54:26.709Z,27.73
2022-10-16T20:56:55.464Z,27.42
2022-10-16T20:59:24.240Z,40.67
2022-10-16T21:01:53.975Z,24.88
2022-10-16T21:04:22.725Z,24.73
2022-10-16T21:06:51.485Z,23.52
2022-10-16T21:09:20.307Z,24.90
2022-10-16T21:11:50.607Z,23.90
2022-10-16T21:14:19.552Z,28.38
2022-10-16T21:16:47.999Z,24.92
2022-10-16T21:19:16.789Z,23.13
2022-10-16T21:21:45.505Z,26.13
2022-10-16T21:24:16.626Z,23.88
2022-10-16T21:26:46.374Z,24.70
2022-10-16T21:29:16.772Z,29.90
2022-10-16T21:31:45.367Z,23.00
2022-10-16T21:34:14.084Z,24.85
2022-10-16T21:36:44.278Z,27.13
2022-10-16T21:39:14.425Z,29.98
2022-10-16T21:41:46.075Z,23.35
2022-10-16T21:44:17.114Z,30.50
2022-10-16T21:46:46.314Z,26.77
2022-10-16T21:49:17.220Z,26.40
2022-10-16T21:51:47.533Z,24.85
2022-10-16T21:54:17.955Z,24.23
2022-10-16T21:59:16.982Z,27.00
2022-10-16T22:01:45.512Z,24.83
2022-10-16T22:04:16.094Z,23.63
2022-10-16T22:06:45.196Z,23.50
2022-10-16T22:09:14.749Z,27.30
2022-10-16T22:11:44.785Z,27.83
2022-10-16T22:14:16.936Z,25.85
2022-10-16T22:16:45.876Z,31.45
2022-10-16T22:19:15.670Z,25.73
2022-10-16T22:21:46.134Z,26.92
2022-10-16T22:24:15.470Z,27.63
2022-10-16T22:26:45.591Z,24.80
2022-10-16T22:29:16.757Z,27.88
2022-10-16T22:31:45.589Z,27.50
2022-10-16T22:34:16.062Z,24.45
2022-10-16T22:39:13.255Z,26.70
2022-10-16T22:41:42.070Z,27.60
2022-10-16T22:44:13.260Z,26.40
2022-10-16T22:46:43.036Z,30.48
2022-10-16T22:49:11.783Z,29.23
2022-10-16T22:51:40.880Z,25.40
2022-10-16T22:54:09.692Z,31.15
2022-10-16T22:56:38.564Z,28.90
2022-10-16T22:59:08.055Z,28.73
2022-10-16T23:01:39.515Z,29.20
2022-10-16T23:04:10.433Z,26.63
2022-10-16T23:06:40.179Z,27.67
2022-10-16T23:09:09.070Z,27.95
2022-10-16T23:11:37.956Z,24.88
2022-10-16T23:14:06.849Z,30.92
2022-10-16T23:16:35.288Z,28.33
2022-10-16T23:19:04.012Z,25.98
2022-10-16T23:21:34.192Z,31.00
2022-10-16T23:24:02.942Z,27.98
2022-10-16T23:26:31.621Z,29.88
2022-10-16T23:29:00.741Z,30.35
2022-10-16T23:31:30.503Z,25.80
2022-10-16T23:33:59.791Z,27.33
2022-10-16T23:36:28.770Z,31.02
2022-10-16T23:38:59.109Z,26.55
2022-10-16T23:41:28.021Z,28.50
2022-10-16T23:43:56.509Z,36.95
2022-10-16T23:48:59.327Z,26.70
2022-10-16T23:51:28.083Z,31.45
2022-10-16T23:54:00.719Z,29.80
2022-10-16T23:56:29.658Z,32.22
2022-10-16T23:58:58.414Z,32.67
